DRGN04 YAMB-PHNL
Flight info
| Callsign | DRGN04 |
|---|---|
| Flight time | N/A |
| Altitude | 35000 |
| Route | BN B578 GUMKI Y88 HARVS R587 VLI DCT TAVER DCT GITON B580 BARKR DCT SELIC |
| Aircraft | A332/H-SADE1E2E3GHIJ3J5M1P2RWXY/LB2D1 |
Departure
| Time | 2026-04-12 14:47 |
|---|---|
| Airport | RAAF Base Amberley (YAMB) |
Arrival
| Time | N/A |
|---|---|
| Airport | Daniel K. Inouye International Airport (PHNL) |
| Time | Latitude | Longitude | Altitude | Speed | Heading |
|---|---|---|---|---|---|
| 2026-04-12 14:32 | -27.62494 | 152.70366 | 100 ft | 0 kts | 339° |
| 2026-04-12 14:43 | -27.62493 | 152.70366 | 100 ft | 1 kts | 339° |
| 2026-04-12 14:44 | -27.62471 | 152.70357 | 102 ft | 6 kts | 340° |
| 2026-04-12 14:44 | -27.62417 | 152.70352 | 101 ft | 5 kts | 14° |
| 2026-04-12 14:44 | -27.62411 | 152.70366 | 100 ft | 2 kts | 59° |
| 2026-04-12 14:44 | -27.62396 | 152.70381 | 102 ft | 4 kts | 38° |
| 2026-04-12 14:45 | -27.62360 | 152.70391 | 103 ft | 7 kts | 5° |
| 2026-04-12 14:45 | -27.62317 | 152.70375 | 102 ft | 0 kts | 336° |
| 2026-04-12 14:45 | -27.62306 | 152.70369 | 100 ft | 7 kts | 337° |
| 2026-04-12 14:45 | -27.62227 | 152.70393 | 99 ft | 17 kts | 36° |
| 2026-04-12 14:46 | -27.62204 | 152.70517 | 102 ft | 15 kts | 113° |
| 2026-04-12 14:46 | -27.62269 | 152.70570 | 101 ft | 0 kts | 158° |
| 2026-04-12 14:46 | -27.62405 | 152.70634 | 102 ft | 56 kts | 157° |
| 2026-04-12 14:46 | -27.63000 | 152.70893 | 101 ft | 125 kts | 158° |
| 2026-04-12 14:47 | -27.63902 | 152.71268 | 473 ft | 134 kts | 159° |
| 2026-04-12 14:47 | -27.64793 | 152.71598 | 869 ft | 144 kts | 164° |
| 2026-04-12 14:47 | -27.65858 | 152.71933 | 966 ft | 176 kts | 164° |
| 2026-04-12 14:47 | -27.67025 | 152.72437 | 1436 ft | 176 kts | 158° |
| 2026-04-12 14:48 | -27.67957 | 152.73186 | 2218 ft | 158 kts | 129° |
| 2026-04-12 14:48 | -27.68271 | 152.74391 | 2641 ft | 171 kts | 92° |
| 2026-04-12 14:48 | -27.67786 | 152.75697 | 2805 ft | 195 kts | 56° |
| 2026-04-12 14:48 | -27.66843 | 152.76871 | 3008 ft | 206 kts | 49° |
| 2026-04-12 14:49 | -27.65824 | 152.78032 | 3342 ft | 208 kts | 49° |
| 2026-04-12 14:49 | -27.64830 | 152.79179 | 3686 ft | 206 kts | 50° |
| 2026-04-12 14:49 | -27.63852 | 152.80345 | 4045 ft | 204 kts | 50° |
| 2026-04-12 14:49 | -27.62885 | 152.81528 | 4377 ft | 204 kts | 50° |
| 2026-04-12 14:50 | -27.61941 | 152.82695 | 4716 ft | 203 kts | 50° |
| 2026-04-12 14:50 | -27.60986 | 152.83881 | 5013 ft | 203 kts | 50° |
| 2026-04-12 14:50 | -27.60026 | 152.85074 | 5021 ft | 205 kts | 49° |
| 2026-04-12 14:50 | -27.59035 | 152.86303 | 4984 ft | 223 kts | 49° |
| 2026-04-12 14:51 | -27.57934 | 152.87668 | 5183 ft | 246 kts | 49° |
| 2026-04-12 14:51 | -27.56734 | 152.89155 | 5402 ft | 267 kts | 49° |
| 2026-04-12 14:51 | -27.55431 | 152.90763 | 5583 ft | 287 kts | 49° |
| 2026-04-12 14:51 | -27.54038 | 152.92480 | 5760 ft | 307 kts | 48° |
| 2026-04-12 14:52 | -27.52555 | 152.94306 | 5930 ft | 325 kts | 48° |
| 2026-04-12 14:52 | -27.50985 | 152.96239 | 6106 ft | 343 kts | 48° |
| 2026-04-12 14:52 | -27.49349 | 152.98254 | 6273 ft | 359 kts | 47° |
| 2026-04-12 14:52 | -27.47622 | 153.00379 | 6473 ft | 372 kts | 47° |
| 2026-04-12 14:53 | -27.45865 | 153.02541 | 6904 ft | 376 kts | 47° |
| 2026-04-12 14:53 | -27.44090 | 153.04725 | 7373 ft | 379 kts | 47° |
| 2026-04-12 14:53 | -27.42328 | 153.06892 | 7810 ft | 383 kts | 47° |
| 2026-04-12 14:53 | -27.40514 | 153.09122 | 8277 ft | 386 kts | 47° |
| 2026-04-12 14:54 | -27.38693 | 153.11363 | 8710 ft | 389 kts | 48° |
| 2026-04-12 14:54 | -27.37089 | 153.13841 | 9160 ft | 393 kts | 59° |
| 2026-04-12 14:54 | -27.35937 | 153.16636 | 9607 ft | 396 kts | 71° |
| 2026-04-12 14:54 | -27.35186 | 153.19628 | 10012 ft | 400 kts | 76° |
| 2026-04-12 14:55 | -27.34457 | 153.22663 | 10438 ft | 403 kts | 75° |
| 2026-04-12 14:55 | -27.33711 | 153.25712 | 10856 ft | 405 kts | 75° |
| 2026-04-12 14:55 | -27.32953 | 153.28777 | 11281 ft | 408 kts | 75° |
| 2026-04-12 14:55 | -27.32190 | 153.31860 | 11711 ft | 411 kts | 75° |
| 2026-04-12 14:56 | -27.31421 | 153.34963 | 12126 ft | 414 kts | 75° |
| 2026-04-12 14:56 | -27.30644 | 153.38099 | 12563 ft | 417 kts | 75° |
| 2026-04-12 14:56 | -27.29863 | 153.41244 | 12993 ft | 420 kts | 75° |
| 2026-04-12 14:56 | -27.29076 | 153.44418 | 13416 ft | 422 kts | 75° |
| 2026-04-12 14:57 | -27.28282 | 153.47613 | 13835 ft | 425 kts | 75° |
| 2026-04-12 14:57 | -27.27483 | 153.50821 | 14219 ft | 428 kts | 75° |
| 2026-04-12 14:57 | -27.26689 | 153.54012 | 14606 ft | 431 kts | 75° |
| 2026-04-12 14:57 | -27.25876 | 153.57274 | 14995 ft | 434 kts | 75° |
| 2026-04-12 14:58 | -27.25059 | 153.60546 | 15379 ft | 436 kts | 75° |
| 2026-04-12 14:58 | -27.24236 | 153.63840 | 15786 ft | 439 kts | 75° |
| 2026-04-12 14:58 | -27.23408 | 153.67150 | 16187 ft | 442 kts | 75° |
| 2026-04-12 14:58 | -27.22575 | 153.70478 | 16602 ft | 444 kts | 75° |
| 2026-04-12 14:59 | -27.21735 | 153.73829 | 17001 ft | 447 kts | 75° |
| 2026-04-12 14:59 | -27.20891 | 153.77190 | 17406 ft | 449 kts | 75° |
| 2026-04-12 14:59 | -27.20040 | 153.80580 | 17831 ft | 452 kts | 75° |
| 2026-04-12 14:59 | -27.19058 | 153.83937 | 18232 ft | 455 kts | 69° |
| 2026-04-12 15:00 | -27.15956 | 153.90176 | 18932 ft | 461 kts | 53° |
| 2026-04-12 15:00 | -27.14035 | 153.93076 | 19287 ft | 464 kts | 53° |
| 2026-04-12 15:00 | -27.12115 | 153.96008 | 19634 ft | 467 kts | 53° |
| 2026-04-12 15:01 | -27.10187 | 153.98970 | 19980 ft | 471 kts | 53° |
| 2026-04-12 15:01 | -27.08247 | 154.01951 | 20293 ft | 475 kts | 52° |
| 2026-04-12 15:01 | -27.06290 | 154.04955 | 20629 ft | 478 kts | 52° |
| 2026-04-12 15:01 | -27.04317 | 154.07979 | 20960 ft | 482 kts | 52° |
| 2026-04-12 15:02 | -27.02328 | 154.11024 | 21286 ft | 486 kts | 51° |
| 2026-04-12 15:02 | -27.00324 | 154.14090 | 21636 ft | 489 kts | 51° |
| 2026-04-12 15:02 | -26.98332 | 154.17137 | 21970 ft | 492 kts | 51° |
| 2026-04-12 15:02 | -26.96299 | 154.20243 | 22305 ft | 496 kts | 50° |
| 2026-04-12 15:03 | -26.94248 | 154.23373 | 22644 ft | 500 kts | 50° |
| 2026-04-12 15:03 | -26.92182 | 154.26526 | 22972 ft | 503 kts | 50° |
| 2026-04-12 15:03 | -26.90103 | 154.29696 | 23299 ft | 507 kts | 50° |
| 2026-04-12 15:03 | -26.87995 | 154.32907 | 23616 ft | 510 kts | 49° |
| 2026-04-12 15:04 | -26.85888 | 154.36115 | 23885 ft | 514 kts | 49° |
| 2026-04-12 15:04 | -26.83759 | 154.39354 | 24141 ft | 518 kts | 49° |
| 2026-04-12 15:04 | -26.81621 | 154.42605 | 24392 ft | 521 kts | 49° |
| 2026-04-12 15:04 | -26.79460 | 154.45888 | 24641 ft | 525 kts | 49° |
| 2026-04-12 15:05 | -26.77288 | 154.49185 | 24895 ft | 528 kts | 49° |
| 2026-04-12 15:05 | -26.75102 | 154.52499 | 25140 ft | 531 kts | 48° |
| 2026-04-12 15:05 | -26.72902 | 154.55834 | 25382 ft | 535 kts | 48° |
| 2026-04-12 15:05 | -26.70684 | 154.59194 | 25607 ft | 538 kts | 48° |
| 2026-04-12 15:06 | -26.68490 | 154.62515 | 25851 ft | 541 kts | 48° |
| 2026-04-12 15:06 | -26.66211 | 154.65961 | 26073 ft | 544 kts | 48° |
| 2026-04-12 15:06 | -26.63957 | 154.69368 | 26292 ft | 547 kts | 48° |
| 2026-04-12 15:06 | -26.61688 | 154.72793 | 26487 ft | 549 kts | 47° |
| 2026-04-12 15:07 | -26.59437 | 154.76190 | 26657 ft | 552 kts | 47° |
| 2026-04-12 15:07 | -26.57147 | 154.79643 | 26813 ft | 554 kts | 47° |
| 2026-04-12 15:07 | -26.54850 | 154.83104 | 26956 ft | 555 kts | 47° |
| 2026-04-12 15:07 | -26.52542 | 154.86578 | 27076 ft | 557 kts | 47° |
| 2026-04-12 15:08 | -26.50227 | 154.90060 | 27179 ft | 559 kts | 47° |
| 2026-04-12 15:08 | -26.47908 | 154.93546 | 27293 ft | 560 kts | 47° |
| 2026-04-12 15:08 | -26.45581 | 154.97041 | 27378 ft | 561 kts | 47° |
| 2026-04-12 15:08 | -26.43248 | 155.00543 | 27455 ft | 562 kts | 47° |
| 2026-04-12 15:09 | -26.40917 | 155.04038 | 27529 ft | 563 kts | 47° |
| 2026-04-12 15:09 | -26.38574 | 155.07549 | 27594 ft | 563 kts | 47° |
| 2026-04-12 15:09 | -26.36229 | 155.11060 | 27663 ft | 564 kts | 47° |
| 2026-04-12 15:09 | -26.33915 | 155.14523 | 27721 ft | 564 kts | 47° |
| 2026-04-12 15:10 | -26.31569 | 155.18030 | 27767 ft | 565 kts | 47° |
| 2026-04-12 15:10 | -26.29219 | 155.21541 | 27819 ft | 565 kts | 47° |
| 2026-04-12 15:10 | -26.26873 | 155.25043 | 27857 ft | 565 kts | 47° |
| 2026-04-12 15:10 | -26.24519 | 155.28554 | 27901 ft | 565 kts | 47° |
| 2026-04-12 15:11 | -26.22166 | 155.32061 | 27936 ft | 565 kts | 47° |
| 2026-04-12 15:11 | -26.19808 | 155.35573 | 27963 ft | 565 kts | 47° |
| 2026-04-12 15:11 | -26.17456 | 155.39073 | 27994 ft | 565 kts | 47° |
| 2026-04-12 15:12 | -26.12746 | 155.46074 | 28060 ft | 565 kts | 47° |
| 2026-04-12 15:12 | -26.08035 | 155.53065 | 28113 ft | 565 kts | 47° |
| 2026-04-12 15:12 | -26.05691 | 155.56542 | 28351 ft | 561 kts | 47° |
| 2026-04-12 15:13 | -26.03358 | 155.60003 | 28824 ft | 554 kts | 47° |
| 2026-04-12 15:13 | -26.01058 | 155.63411 | 29333 ft | 549 kts | 47° |
| 2026-04-12 15:13 | -25.98772 | 155.66794 | 29859 ft | 545 kts | 46° |
| 2026-04-12 15:13 | -25.96505 | 155.70144 | 30333 ft | 542 kts | 46° |
| 2026-04-12 15:14 | -25.94244 | 155.73484 | 30785 ft | 539 kts | 46° |
| 2026-04-12 15:14 | -25.92321 | 155.76321 | 31172 ft | 536 kts | 46° |
| 2026-04-12 15:14 | -25.90210 | 155.79436 | 31603 ft | 533 kts | 46° |
| 2026-04-12 15:14 | -25.87985 | 155.82716 | 32076 ft | 530 kts | 46° |
| 2026-04-12 15:15 | -25.85775 | 155.85971 | 32556 ft | 526 kts | 45° |
| 2026-04-12 15:15 | -25.83611 | 155.89157 | 33031 ft | 522 kts | 45° |
| 2026-04-12 15:15 | -25.81431 | 155.92366 | 33536 ft | 518 kts | 45° |
| 2026-04-12 15:15 | -25.79269 | 155.95544 | 34014 ft | 514 kts | 45° |
| 2026-04-12 15:16 | -25.77123 | 155.98698 | 34462 ft | 509 kts | 45° |
| 2026-04-12 15:16 | -25.74999 | 156.01817 | 34852 ft | 506 kts | 45° |
| 2026-04-12 15:16 | -25.72873 | 156.04931 | 34979 ft | 510 kts | 45° |
| 2026-04-12 15:16 | -25.70769 | 156.08166 | 35003 ft | 521 kts | 49° |
| 2026-04-12 15:17 | -25.68783 | 156.11558 | 35010 ft | 526 kts | 50° |
| 2026-04-12 15:17 | -25.64845 | 156.18359 | 35003 ft | 522 kts | 50° |
| 2026-04-12 15:18 | -25.60905 | 156.25127 | 35004 ft | 523 kts | 50° |
| 2026-04-12 15:18 | -25.56947 | 156.31900 | 35004 ft | 523 kts | 50° |
| 2026-04-12 15:19 | -25.52988 | 156.38656 | 34998 ft | 522 kts | 50° |
| 2026-04-12 15:19 | -25.49032 | 156.45397 | 35000 ft | 522 kts | 50° |
| 2026-04-12 15:20 | -25.45073 | 156.52135 | 35000 ft | 522 kts | 50° |
| 2026-04-12 15:20 | -25.41114 | 156.58863 | 34998 ft | 522 kts | 50° |
| 2026-04-12 15:21 | -25.37154 | 156.65582 | 35002 ft | 521 kts | 50° |
| 2026-04-12 15:21 | -25.33194 | 156.72292 | 35000 ft | 521 kts | 50° |
| 2026-04-12 15:22 | -25.29256 | 156.78956 | 34998 ft | 521 kts | 50° |
| 2026-04-12 15:22 | -25.25292 | 156.85654 | 34997 ft | 521 kts | 50° |
| 2026-04-12 15:23 | -25.21969 | 156.91261 | 35000 ft | 521 kts | 50° |
| 2026-04-12 15:23 | -25.18023 | 156.97913 | 35002 ft | 520 kts | 50° |
| 2026-04-12 15:24 | -25.14544 | 157.03768 | 35002 ft | 520 kts | 50° |